sensor_id;sensor_type;location;lat;lon;timestamp;P1;durP1;ratioP1;P2;durP2;ratioP2
66429;SDS011;53242;51.694;10.006;2024-02-28T00:00:20;32.63;;;10.18;;
66429;SDS011;53242;51.694;10.006;2024-02-28T00:02:42;29.55;;;9.27;;
66429;SDS011;53242;51.694;10.006;2024-02-28T00:05:05;29.88;;;9.63;;
66429;SDS011;53242;51.694;10.006;2024-02-28T00:07:27;31.05;;;10.10;;
66429;SDS011;53242;51.694;10.006;2024-02-28T00:09:50;29.80;;;9.93;;
66429;SDS011;53242;51.694;10.006;2024-02-28T00:12:12;31.42;;;9.88;;
66429;SDS011;53242;51.694;10.006;2024-02-28T00:14:34;32.80;;;10.48;;
66429;SDS011;53242;51.694;10.006;2024-02-28T00:16:57;27.77;;;9.73;;
66429;SDS011;53242;51.694;10.006;2024-02-28T00:19:19;28.80;;;9.57;;
66429;SDS011;53242;51.694;10.006;2024-02-28T00:21:42;30.08;;;9.75;;
66429;SDS011;53242;51.694;10.006;2024-02-28T00:24:05;28.92;;;9.35;;
66429;SDS011;53242;51.694;10.006;2024-02-28T00:26:28;31.05;;;10.23;;
66429;SDS011;53242;51.694;10.006;2024-02-28T00:28:50;30.10;;;9.75;;
66429;SDS011;53242;51.694;10.006;2024-02-28T00:31:12;32.45;;;10.85;;
66429;SDS011;53242;51.694;10.006;2024-02-28T00:33:35;31.70;;;10.38;;
66429;SDS011;53242;51.694;10.006;2024-02-28T00:35:57;36.53;;;12.20;;
66429;SDS011;53242;51.694;10.006;2024-02-28T00:38:20;34.70;;;12.25;;
66429;SDS011;53242;51.694;10.006;2024-02-28T00:40:42;39.97;;;13.25;;
66429;SDS011;53242;51.694;10.006;2024-02-28T00:43:05;35.20;;;12.82;;
66429;SDS011;53242;51.694;10.006;2024-02-28T00:45:28;36.90;;;12.45;;
66429;SDS011;53242;51.694;10.006;2024-02-28T00:47:50;40.38;;;13.50;;
66429;SDS011;53242;51.694;10.006;2024-02-28T00:50:12;38.05;;;12.77;;
66429;SDS011;53242;51.694;10.006;2024-02-28T00:52:35;39.20;;;13.40;;
66429;SDS011;53242;51.694;10.006;2024-02-28T00:54:57;40.70;;;13.10;;
66429;SDS011;53242;51.694;10.006;2024-02-28T00:57:20;36.00;;;12.13;;
66429;SDS011;53242;51.694;10.006;2024-02-28T00:59:42;39.63;;;12.65;;
66429;SDS011;53242;51.694;10.006;2024-02-28T01:02:06;34.60;;;11.98;;
66429;SDS011;53242;51.694;10.006;2024-02-28T01:04:28;40.63;;;12.80;;
66429;SDS011;53242;51.694;10.006;2024-02-28T01:06:51;41.42;;;13.48;;
66429;SDS011;53242;51.694;10.006;2024-02-28T01:09:13;38.90;;;13.18;;
66429;SDS011;53242;51.694;10.006;2024-02-28T01:11:36;40.15;;;14.45;;
66429;SDS011;53242;51.694;10.006;2024-02-28T01:13:58;39.83;;;13.30;;
66429;SDS011;53242;51.694;10.006;2024-02-28T01:16:20;45.72;;;14.30;;
66429;SDS011;53242;51.694;10.006;2024-02-28T01:18:43;42.10;;;13.35;;
66429;SDS011;53242;51.694;10.006;2024-02-28T01:21:05;41.47;;;13.30;;
66429;SDS011;53242;51.694;10.006;2024-02-28T01:23:28;41.45;;;13.63;;
66429;SDS011;53242;51.694;10.006;2024-02-28T01:25:50;41.47;;;13.65;;
66429;SDS011;53242;51.694;10.006;2024-02-28T01:28:12;38.33;;;12.93;;
66429;SDS011;53242;51.694;10.006;2024-02-28T01:30:35;41.78;;;13.48;;
66429;SDS011;53242;51.694;10.006;2024-02-28T01:32:57;38.42;;;12.73;;
66429;SDS011;53242;51.694;10.006;2024-02-28T01:35:20;37.92;;;12.73;;
66429;SDS011;53242;51.694;10.006;2024-02-28T01:37:42;42.75;;;13.93;;
66429;SDS011;53242;51.694;10.006;2024-02-28T01:40:05;39.97;;;14.32;;
66429;SDS011;53242;51.694;10.006;2024-02-28T01:42:27;40.17;;;13.18;;
66429;SDS011;53242;51.694;10.006;2024-02-28T01:44:52;39.58;;;12.80;;
66429;SDS011;53242;51.694;10.006;2024-02-28T01:47:14;41.47;;;13.15;;
66429;SDS011;53242;51.694;10.006;2024-02-28T01:49:37;37.97;;;13.10;;
66429;SDS011;53242;51.694;10.006;2024-02-28T01:52:00;37.80;;;13.38;;
66429;SDS011;53242;51.694;10.006;2024-02-28T01:54:23;39.13;;;12.60;;
66429;SDS011;53242;51.694;10.006;2024-02-28T01:56:46;37.30;;;12.95;;
66429;SDS011;53242;51.694;10.006;2024-02-28T01:59:09;32.78;;;12.00;;
66429;SDS011;53242;51.694;10.006;2024-02-28T02:01:32;38.63;;;12.88;;
66429;SDS011;53242;51.694;10.006;2024-02-28T02:03:55;41.63;;;13.80;;
66429;SDS011;53242;51.694;10.006;2024-02-28T02:06:17;40.58;;;13.00;;
66429;SDS011;53242;51.694;10.006;2024-02-28T02:08:40;32.45;;;11.50;;
66429;SDS011;53242;51.694;10.006;2024-02-28T02:11:02;37.22;;;11.93;;
66429;SDS011;53242;51.694;10.006;2024-02-28T02:13:25;32.47;;;10.38;;
66429;SDS011;53242;51.694;10.006;2024-02-28T02:15:47;34.53;;;11.52;;
66429;SDS011;53242;51.694;10.006;2024-02-28T02:18:10;35.83;;;11.25;;
66429;SDS011;53242;51.694;10.006;2024-02-28T02:20:32;36.53;;;11.93;;
66429;SDS011;53242;51.694;10.006;2024-02-28T02:23:00;36.92;;;11.75;;
66429;SDS011;53242;51.694;10.006;2024-02-28T02:25:23;35.95;;;11.85;;
66429;SDS011;53242;51.694;10.006;2024-02-28T02:27:45;38.17;;;12.57;;
66429;SDS011;53242;51.694;10.006;2024-02-28T02:30:08;31.10;;;11.80;;
66429;SDS011;53242;51.694;10.006;2024-02-28T02:32:30;34.58;;;11.70;;
66429;SDS011;53242;51.694;10.006;2024-02-28T02:34:53;33.90;;;10.95;;
66429;SDS011;53242;51.694;10.006;2024-02-28T02:37:15;37.28;;;12.30;;
66429;SDS011;53242;51.694;10.006;2024-02-28T02:39:37;35.40;;;11.48;;
66429;SDS011;53242;51.694;10.006;2024-02-28T02:42:00;35.15;;;11.32;;
66429;SDS011;53242;51.694;10.006;2024-02-28T02:44:23;32.50;;;10.82;;
66429;SDS011;53242;51.694;10.006;2024-02-28T02:46:45;33.15;;;11.68;;
66429;SDS011;53242;51.694;10.006;2024-02-28T02:49:08;30.17;;;10.25;;
66429;SDS011;53242;51.694;10.006;2024-02-28T02:51:30;31.05;;;9.75;;
66429;SDS011;53242;51.694;10.006;2024-02-28T02:53:53;31.83;;;10.77;;
66429;SDS011;53242;51.694;10.006;2024-02-28T02:56:15;31.30;;;10.63;;
66429;SDS011;53242;51.694;10.006;2024-02-28T02:58:38;31.98;;;10.02;;
66429;SDS011;53242;51.694;10.006;2024-02-28T03:01:00;31.83;;;9.93;;
66429;SDS011;53242;51.694;10.006;2024-02-28T03:03:23;34.22;;;10.60;;
66429;SDS011;53242;51.694;10.006;2024-02-28T03:05:45;31.40;;;10.00;;
66429;SDS011;53242;51.694;10.006;2024-02-28T03:08:07;35.08;;;10.40;;
66429;SDS011;53242;51.694;10.006;2024-02-28T03:10:30;34.78;;;11.20;;
66429;SDS011;53242;51.694;10.006;2024-02-28T03:12:52;35.90;;;10.95;;
66429;SDS011;53242;51.694;10.006;2024-02-28T03:15:15;35.33;;;11.32;;
66429;SDS011;53242;51.694;10.006;2024-02-28T03:17:38;30.83;;;10.60;;
66429;SDS011;53242;51.694;10.006;2024-02-28T03:20:00;35.75;;;11.15;;
66429;SDS011;53242;51.694;10.006;2024-02-28T03:22:22;33.63;;;11.38;;
66429;SDS011;53242;51.694;10.006;2024-02-28T03:24:45;35.38;;;11.18;;
66429;SDS011;53242;51.694;10.006;2024-02-28T03:27:07;34.63;;;11.18;;
66429;SDS011;53242;51.694;10.006;2024-02-28T03:29:30;32.47;;;10.20;;
66429;SDS011;53242;51.694;10.006;2024-02-28T03:31:52;34.80;;;10.90;;
66429;SDS011;53242;51.694;10.006;2024-02-28T03:34:15;30.90;;;11.13;;
66429;SDS011;53242;51.694;10.006;2024-02-28T03:36:37;32.95;;;10.77;;
66429;SDS011;53242;51.694;10.006;2024-02-28T03:39:00;37.75;;;11.18;;
66429;SDS011;53242;51.694;10.006;2024-02-28T03:41:22;36.58;;;11.10;;
66429;SDS011;53242;51.694;10.006;2024-02-28T03:43:44;33.00;;;12.25;;
66429;SDS011;53242;51.694;10.006;2024-02-28T03:46:07;36.05;;;10.88;;
66429;SDS011;53242;51.694;10.006;2024-02-28T03:48:30;39.55;;;11.35;;
66429;SDS011;53242;51.694;10.006;2024-02-28T03:50:52;34.60;;;10.75;;
66429;SDS011;53242;51.694;10.006;2024-02-28T03:53:14;31.70;;;10.18;;
66429;SDS011;53242;51.694;10.006;2024-02-28T03:55:37;33.75;;;11.60;;
66429;SDS011;53242;51.694;10.006;2024-02-28T03:57:59;31.25;;;9.80;;
66429;SDS011;53242;51.694;10.006;2024-02-28T04:00:22;29.50;;;10.15;;
66429;SDS011;53242;51.694;10.006;2024-02-28T04:02:44;31.88;;;10.02;;
66429;SDS011;53242;51.694;10.006;2024-02-28T04:05:07;33.47;;;10.98;;
66429;SDS011;53242;51.694;10.006;2024-02-28T04:07:29;35.65;;;11.70;;
66429;SDS011;53242;51.694;10.006;2024-02-28T04:09:52;32.05;;;10.52;;
66429;SDS011;53242;51.694;10.006;2024-02-28T04:12:14;35.47;;;10.90;;
66429;SDS011;53242;51.694;10.006;2024-02-28T04:14:37;35.03;;;10.98;;
66429;SDS011;53242;51.694;10.006;2024-02-28T04:17:00;30.77;;;10.27;;
66429;SDS011;53242;51.694;10.006;2024-02-28T04:19:23;34.42;;;10.80;;
66429;SDS011;53242;51.694;10.006;2024-02-28T04:21:45;33.78;;;11.02;;
66429;SDS011;53242;51.694;10.006;2024-02-28T04:24:07;40.28;;;11.75;;
66429;SDS011;53242;51.694;10.006;2024-02-28T04:26:31;37.25;;;11.50;;
66429;SDS011;53242;51.694;10.006;2024-02-28T04:28:53;35.67;;;12.45;;
66429;SDS011;53242;51.694;10.006;2024-02-28T04:31:16;38.55;;;12.00;;
66429;SDS011;53242;51.694;10.006;2024-02-28T04:33:38;35.00;;;10.10;;
66429;SDS011;53242;51.694;10.006;2024-02-28T04:36:01;33.33;;;11.07;;
66429;SDS011;53242;51.694;10.006;2024-02-28T04:38:23;36.13;;;10.98;;
66429;SDS011;53242;51.694;10.006;2024-02-28T04:40:46;32.75;;;10.32;;
66429;SDS011;53242;51.694;10.006;2024-02-28T04:43:08;33.08;;;10.93;;
66429;SDS011;53242;51.694;10.006;2024-02-28T04:45:31;35.22;;;10.38;;
66429;SDS011;53242;51.694;10.006;2024-02-28T04:47:53;33.85;;;10.70;;
66429;SDS011;53242;51.694;10.006;2024-02-28T04:50:17;35.65;;;10.32;;
66429;SDS011;53242;51.694;10.006;2024-02-28T04:52:39;35.10;;;10.30;;
66429;SDS011;53242;51.694;10.006;2024-02-28T04:55:02;35.72;;;11.05;;
66429;SDS011;53242;51.694;10.006;2024-02-28T04:57:24;34.60;;;10.30;;
66429;SDS011;53242;51.694;10.006;2024-02-28T04:59:47;33.53;;;9.98;;
66429;SDS011;53242;51.694;10.006;2024-02-28T05:02:09;32.65;;;10.50;;
66429;SDS011;53242;51.694;10.006;2024-02-28T05:04:32;36.85;;;10.45;;
66429;SDS011;53242;51.694;10.006;2024-02-28T05:06:54;33.38;;;10.85;;
66429;SDS011;53242;51.694;10.006;2024-02-28T05:09:16;35.08;;;10.73;;
66429;SDS011;53242;51.694;10.006;2024-02-28T05:11:39;29.98;;;11.18;;
66429;SDS011;53242;51.694;10.006;2024-02-28T05:14:01;35.55;;;10.02;;
66429;SDS011;53242;51.694;10.006;2024-02-28T05:16:24;36.25;;;11.55;;
66429;SDS011;53242;51.694;10.006;2024-02-28T05:18:46;35.08;;;11.70;;
66429;SDS011;53242;51.694;10.006;2024-02-28T05:21:09;37.03;;;12.18;;
66429;SDS011;53242;51.694;10.006;2024-02-28T05:23:31;33.03;;;10.70;;
66429;SDS011;53242;51.694;10.006;2024-02-28T05:25:54;34.35;;;11.00;;
66429;SDS011;53242;51.694;10.006;2024-02-28T05:28:16;35.80;;;11.80;;
66429;SDS011;53242;51.694;10.006;2024-02-28T05:30:38;36.33;;;10.85;;
66429;SDS011;53242;51.694;10.006;2024-02-28T05:33:01;34.80;;;10.98;;
66429;SDS011;53242;51.694;10.006;2024-02-28T05:35:23;36.38;;;10.35;;
66429;SDS011;53242;51.694;10.006;2024-02-28T05:37:46;32.90;;;8.98;;
66429;SDS011;53242;51.694;10.006;2024-02-28T05:40:11;32.33;;;10.35;;
66429;SDS011;53242;51.694;10.006;2024-02-28T05:42:34;35.28;;;9.93;;
66429;SDS011;53242;51.694;10.006;2024-02-28T05:44:57;29.45;;;8.57;;
66429;SDS011;53242;51.694;10.006;2024-02-28T05:47:19;34.08;;;8.82;;
66429;SDS011;53242;51.694;10.006;2024-02-28T05:49:42;35.35;;;10.52;;
66429;SDS011;53242;51.694;10.006;2024-02-28T05:52:04;33.88;;;9.90;;
66429;SDS011;53242;51.694;10.006;2024-02-28T05:54:27;33.50;;;10.10;;
66429;SDS011;53242;51.694;10.006;2024-02-28T05:56:50;34.97;;;10.43;;
66429;SDS011;53242;51.694;10.006;2024-02-28T05:59:12;33.28;;;10.27;;
66429;SDS011;53242;51.694;10.006;2024-02-28T06:01:35;27.08;;;8.50;;
66429;SDS011;53242;51.694;10.006;2024-02-28T06:03:58;33.38;;;10.55;;
66429;SDS011;53242;51.694;10.006;2024-02-28T06:06:20;32.70;;;9.77;;
66429;SDS011;53242;51.694;10.006;2024-02-28T06:08:43;31.67;;;9.25;;
66429;SDS011;53242;51.694;10.006;2024-02-28T06:11:06;28.95;;;9.05;;
66429;SDS011;53242;51.694;10.006;2024-02-28T06:13:29;29.35;;;8.82;;
66429;SDS011;53242;51.694;10.006;2024-02-28T06:15:51;30.25;;;9.50;;
66429;SDS011;53242;51.694;10.006;2024-02-28T06:18:14;32.03;;;9.68;;
66429;SDS011;53242;51.694;10.006;2024-02-28T06:20:36;31.90;;;10.20;;
66429;SDS011;53242;51.694;10.006;2024-02-28T06:22:59;35.28;;;10.43;;
66429;SDS011;53242;51.694;10.006;2024-02-28T06:25:21;35.10;;;9.48;;
66429;SDS011;53242;51.694;10.006;2024-02-28T06:27:45;37.35;;;10.18;;
66429;SDS011;53242;51.694;10.006;2024-02-28T06:30:08;32.85;;;10.27;;
66429;SDS011;53242;51.694;10.006;2024-02-28T06:32:30;32.75;;;10.25;;
66429;SDS011;53242;51.694;10.006;2024-02-28T06:34:53;36.42;;;10.18;;
66429;SDS011;53242;51.694;10.006;2024-02-28T06:37:15;36.97;;;10.25;;
66429;SDS011;53242;51.694;10.006;2024-02-28T06:39:38;30.98;;;8.98;;
66429;SDS011;53242;51.694;10.006;2024-02-28T06:42:00;37.90;;;10.27;;
66429;SDS011;53242;51.694;10.006;2024-02-28T06:44:22;32.10;;;10.32;;
66429;SDS011;53242;51.694;10.006;2024-02-28T06:46:45;39.00;;;11.70;;
66429;SDS011;53242;51.694;10.006;2024-02-28T06:49:07;35.80;;;10.70;;
66429;SDS011;53242;51.694;10.006;2024-02-28T06:51:30;38.25;;;11.05;;
66429;SDS011;53242;51.694;10.006;2024-02-28T06:53:52;40.85;;;11.10;;
66429;SDS011;53242;51.694;10.006;2024-02-28T06:56:15;39.47;;;11.77;;
66429;SDS011;53242;51.694;10.006;2024-02-28T06:58:37;43.05;;;12.00;;
66429;SDS011;53242;51.694;10.006;2024-02-28T07:00:59;39.88;;;11.65;;
66429;SDS011;53242;51.694;10.006;2024-02-28T07:03:22;31.98;;;10.55;;
66429;SDS011;53242;51.694;10.006;2024-02-28T07:05:44;34.22;;;10.32;;
66429;SDS011;53242;51.694;10.006;2024-02-28T07:08:07;39.15;;;10.80;;
66429;SDS011;53242;51.694;10.006;2024-02-28T07:10:29;35.65;;;10.00;;
66429;SDS011;53242;51.694;10.006;2024-02-28T07:12:52;38.08;;;11.68;;
66429;SDS011;53242;51.694;10.006;2024-02-28T07:15:14;36.63;;;9.98;;
66429;SDS011;53242;51.694;10.006;2024-02-28T07:17:36;35.80;;;10.80;;
66429;SDS011;53242;51.694;10.006;2024-02-28T07:19:59;37.40;;;10.10;;
66429;SDS011;53242;51.694;10.006;2024-02-28T07:22:21;39.22;;;8.50;;
66429;SDS011;53242;51.694;10.006;2024-02-28T07:24:44;39.60;;;11.43;;
66429;SDS011;53242;51.694;10.006;2024-02-28T07:27:06;41.92;;;10.75;;
66429;SDS011;53242;51.694;10.006;2024-02-28T07:29:29;38.47;;;10.82;;
66429;SDS011;53242;51.694;10.006;2024-02-28T07:31:51;38.78;;;10.40;;
66429;SDS011;53242;51.694;10.006;2024-02-28T07:34:14;37.65;;;9.82;;
66429;SDS011;53242;51.694;10.006;2024-02-28T07:36:36;37.92;;;10.88;;
66429;SDS011;53242;51.694;10.006;2024-02-28T07:38:59;38.28;;;10.18;;
66429;SDS011;53242;51.694;10.006;2024-02-28T07:41:21;36.22;;;10.10;;
66429;SDS011;53242;51.694;10.006;2024-02-28T07:43:44;40.35;;;11.48;;
66429;SDS011;53242;51.694;10.006;2024-02-28T07:46:06;46.85;;;11.25;;
66429;SDS011;53242;51.694;10.006;2024-02-28T07:48:30;44.53;;;11.88;;
66429;SDS011;53242;51.694;10.006;2024-02-28T07:50:52;46.55;;;12.38;;
66429;SDS011;53242;51.694;10.006;2024-02-28T07:53:14;40.28;;;10.80;;
66429;SDS011;53242;51.694;10.006;2024-02-28T07:55:37;39.42;;;10.50;;
66429;SDS011;53242;51.694;10.006;2024-02-28T07:58:00;41.20;;;10.45;;
66429;SDS011;53242;51.694;10.006;2024-02-28T08:00:23;42.25;;;10.77;;
66429;SDS011;53242;51.694;10.006;2024-02-28T08:02:47;38.72;;;11.45;;
66429;SDS011;53242;51.694;10.006;2024-02-28T08:05:09;38.83;;;10.73;;
66429;SDS011;53242;51.694;10.006;2024-02-28T08:07:32;41.15;;;10.73;;
66429;SDS011;53242;51.694;10.006;2024-02-28T08:09:54;42.38;;;11.00;;
66429;SDS011;53242;51.694;10.006;2024-02-28T08:12:17;35.92;;;10.68;;
66429;SDS011;53242;51.694;10.006;2024-02-28T08:14:39;39.28;;;10.65;;
66429;SDS011;53242;51.694;10.006;2024-02-28T08:17:01;39.08;;;10.82;;
66429;SDS011;53242;51.694;10.006;2024-02-28T08:19:24;36.03;;;9.52;;
66429;SDS011;53242;51.694;10.006;2024-02-28T08:21:46;37.70;;;10.07;;
66429;SDS011;53242;51.694;10.006;2024-02-28T08:24:09;39.20;;;11.73;;
66429;SDS011;53242;51.694;10.006;2024-02-28T08:26:31;40.17;;;12.20;;
66429;SDS011;53242;51.694;10.006;2024-02-28T08:28:54;40.72;;;12.73;;
66429;SDS011;53242;51.694;10.006;2024-02-28T08:31:16;38.55;;;10.80;;
66429;SDS011;53242;51.694;10.006;2024-02-28T08:33:38;35.13;;;10.38;;
66429;SDS011;53242;51.694;10.006;2024-02-28T08:36:02;38.67;;;11.20;;
66429;SDS011;53242;51.694;10.006;2024-02-28T08:38:25;41.03;;;10.48;;
66429;SDS011;53242;51.694;10.006;2024-02-28T08:40:47;35.88;;;11.00;;
66429;SDS011;53242;51.694;10.006;2024-02-28T08:43:10;34.45;;;9.75;;
66429;SDS011;53242;51.694;10.006;2024-02-28T08:45:32;33.78;;;9.63;;
66429;SDS011;53242;51.694;10.006;2024-02-28T08:47:55;32.58;;;8.95;;
66429;SDS011;53242;51.694;10.006;2024-02-28T08:50:19;36.30;;;10.60;;
66429;SDS011;53242;51.694;10.006;2024-02-28T08:52:42;31.50;;;9.55;;
66429;SDS011;53242;51.694;10.006;2024-02-28T08:55:04;39.10;;;10.05;;
66429;SDS011;53242;51.694;10.006;2024-02-28T08:57:27;36.53;;;11.00;;
66429;SDS011;53242;51.694;10.006;2024-02-28T08:59:50;40.72;;;9.57;;
66429;SDS011;53242;51.694;10.006;2024-02-28T09:02:12;43.25;;;11.13;;
66429;SDS011;53242;51.694;10.006;2024-02-28T09:04:35;39.53;;;12.57;;
66429;SDS011;53242;51.694;10.006;2024-02-28T09:06:57;50.30;;;13.98;;
66429;SDS011;53242;51.694;10.006;2024-02-28T09:09:19;38.80;;;10.68;;
66429;SDS011;53242;51.694;10.006;2024-02-28T09:11:42;42.25;;;11.70;;
66429;SDS011;53242;51.694;10.006;2024-02-28T09:14:04;40.47;;;10.30;;
66429;SDS011;53242;51.694;10.006;2024-02-28T09:16:27;36.63;;;10.68;;
66429;SDS011;53242;51.694;10.006;2024-02-28T09:18:49;37.75;;;10.27;;
66429;SDS011;53242;51.694;10.006;2024-02-28T09:21:11;42.88;;;11.98;;
66429;SDS011;53242;51.694;10.006;2024-02-28T09:23:34;37.72;;;9.82;;
66429;SDS011;53242;51.694;10.006;2024-02-28T09:25:56;42.05;;;11.48;;
66429;SDS011;53242;51.694;10.006;2024-02-28T09:28:19;34.90;;;9.85;;
66429;SDS011;53242;51.694;10.006;2024-02-28T09:30:42;39.20;;;11.27;;
66429;SDS011;53242;51.694;10.006;2024-02-28T09:33:05;39.28;;;11.32;;
66429;SDS011;53242;51.694;10.006;2024-02-28T09:35:28;38.65;;;10.40;;
66429;SDS011;53242;51.694;10.006;2024-02-28T09:37:50;37.90;;;10.65;;
66429;SDS011;53242;51.694;10.006;2024-02-28T09:40:12;39.08;;;10.73;;
66429;SDS011;53242;51.694;10.006;2024-02-28T09:42:35;39.78;;;10.07;;
66429;SDS011;53242;51.694;10.006;2024-02-28T09:45:00;35.97;;;10.85;;
66429;SDS011;53242;51.694;10.006;2024-02-28T09:47:23;36.67;;;9.38;;
66429;SDS011;53242;51.694;10.006;2024-02-28T09:49:46;36.67;;;10.35;;
66429;SDS011;53242;51.694;10.006;2024-02-28T09:52:12;33.83;;;9.48;;
66429;SDS011;53242;51.694;10.006;2024-02-28T09:54:35;35.90;;;10.23;;
66429;SDS011;53242;51.694;10.006;2024-02-28T09:56:57;37.30;;;10.35;;
66429;SDS011;53242;51.694;10.006;2024-02-28T09:59:20;36.33;;;9.88;;
66429;SDS011;53242;51.694;10.006;2024-02-28T10:04:12;37.97;;;10.23;;
66429;SDS011;53242;51.694;10.006;2024-02-28T10:06:35;26.17;;;7.80;;
66429;SDS011;53242;51.694;10.006;2024-02-28T10:08:57;38.25;;;10.93;;
66429;SDS011;53242;51.694;10.006;2024-02-28T10:11:23;39.45;;;11.10;;
66429;SDS011;53242;51.694;10.006;2024-02-28T10:13:49;38.40;;;11.80;;
66429;SDS011;53242;51.694;10.006;2024-02-28T10:16:12;34.00;;;9.55;;
66429;SDS011;53242;51.694;10.006;2024-02-28T10:18:36;38.67;;;10.52;;
66429;SDS011;53242;51.694;10.006;2024-02-28T10:20:59;41.03;;;11.02;;
66429;SDS011;53242;51.694;10.006;2024-02-28T10:23:21;36.22;;;9.55;;
66429;SDS011;53242;51.694;10.006;2024-02-28T10:25:44;39.58;;;11.27;;
66429;SDS011;53242;51.694;10.006;2024-02-28T10:28:07;37.97;;;11.60;;
66429;SDS011;53242;51.694;10.006;2024-02-28T10:30:29;40.38;;;11.23;;
66429;SDS011;53242;51.694;10.006;2024-02-28T10:32:52;30.73;;;8.85;;
66429;SDS011;53242;51.694;10.006;2024-02-28T10:35:14;32.13;;;10.75;;
66429;SDS011;53242;51.694;10.006;2024-02-28T10:37:39;36.63;;;11.02;;
66429;SDS011;53242;51.694;10.006;2024-02-28T10:40:01;33.92;;;9.15;;
66429;SDS011;53242;51.694;10.006;2024-02-28T10:42:25;35.70;;;10.65;;
66429;SDS011;53242;51.694;10.006;2024-02-28T10:44:49;36.22;;;10.50;;
66429;SDS011;53242;51.694;10.006;2024-02-28T10:47:14;31.55;;;8.93;;
66429;SDS011;53242;51.694;10.006;2024-02-28T10:49:37;31.83;;;9.40;;
66429;SDS011;53242;51.694;10.006;2024-02-28T10:51:59;37.80;;;10.98;;
66429;SDS011;53242;51.694;10.006;2024-02-28T10:54:25;34.22;;;9.95;;
66429;SDS011;53242;51.694;10.006;2024-02-28T10:56:51;32.67;;;10.57;;
66429;SDS011;53242;51.694;10.006;2024-02-28T10:59:15;35.55;;;10.30;;
66429;SDS011;53242;51.694;10.006;2024-02-28T11:01:37;39.53;;;11.77;;
66429;SDS011;53242;51.694;10.006;2024-02-28T11:04:04;38.63;;;11.40;;
66429;SDS011;53242;51.694;10.006;2024-02-28T11:06:27;33.80;;;10.23;;
66429;SDS011;53242;51.694;10.006;2024-02-28T11:08:51;31.80;;;10.13;;
66429;SDS011;53242;51.694;10.006;2024-02-28T11:11:18;33.30;;;11.02;;
66429;SDS011;53242;51.694;10.006;2024-02-28T11:13:51;33.92;;;9.90;;
66429;SDS011;53242;51.694;10.006;2024-02-28T11:16:25;38.88;;;10.75;;
66429;SDS011;53242;51.694;10.006;2024-02-28T11:18:48;35.63;;;10.70;;
66429;SDS011;53242;51.694;10.006;2024-02-28T11:21:17;35.95;;;10.40;;
66429;SDS011;53242;51.694;10.006;2024-02-28T11:23:39;38.38;;;10.88;;
66429;SDS011;53242;51.694;10.006;2024-02-28T11:26:02;36.70;;;12.15;;
66429;SDS011;53242;51.694;10.006;2024-02-28T11:28:25;41.30;;;11.82;;
66429;SDS011;53242;51.694;10.006;2024-02-28T11:30:48;23.70;;;6.70;;
66429;SDS011;53242;51.694;10.006;2024-02-28T11:33:10;38.55;;;11.50;;
66429;SDS011;53242;51.694;10.006;2024-02-28T11:35:32;37.58;;;10.68;;
66429;SDS011;53242;51.694;10.006;2024-02-28T11:37:55;33.67;;;9.77;;
66429;SDS011;53242;51.694;10.006;2024-02-28T11:40:20;38.40;;;11.30;;
66429;SDS011;53242;51.694;10.006;2024-02-28T11:42:43;37.67;;;11.30;;
66429;SDS011;53242;51.694;10.006;2024-02-28T11:45:05;40.05;;;12.10;;
66429;SDS011;53242;51.694;10.006;2024-02-28T11:47:28;36.55;;;11.65;;
66429;SDS011;53242;51.694;10.006;2024-02-28T11:49:50;36.53;;;11.55;;
66429;SDS011;53242;51.694;10.006;2024-02-28T11:52:12;39.88;;;12.32;;
66429;SDS011;53242;51.694;10.006;2024-02-28T11:54:36;38.55;;;11.25;;
66429;SDS011;53242;51.694;10.006;2024-02-28T11:56:58;34.05;;;11.05;;
66429;SDS011;53242;51.694;10.006;2024-02-28T11:59:21;33.45;;;10.95;;
66429;SDS011;53242;51.694;10.006;2024-02-28T12:01:43;41.40;;;12.63;;
66429;SDS011;53242;51.694;10.006;2024-02-28T12:04:06;38.72;;;10.98;;
66429;SDS011;53242;51.694;10.006;2024-02-28T12:06:28;38.90;;;12.00;;
66429;SDS011;53242;51.694;10.006;2024-02-28T12:08:51;31.77;;;10.13;;
66429;SDS011;53242;51.694;10.006;2024-02-28T12:11:13;38.30;;;11.57;;
66429;SDS011;53242;51.694;10.006;2024-02-28T12:13:36;37.50;;;10.80;;
66429;SDS011;53242;51.694;10.006;2024-02-28T12:16:00;36.40;;;10.38;;
66429;SDS011;53242;51.694;10.006;2024-02-28T12:18:23;32.88;;;9.52;;
66429;SDS011;53242;51.694;10.006;2024-02-28T12:20:49;37.25;;;11.25;;
66429;SDS011;53242;51.694;10.006;2024-02-28T12:23:12;35.35;;;10.73;;
66429;SDS011;53242;51.694;10.006;2024-02-28T12:25:34;34.65;;;10.50;;
66429;SDS011;53242;51.694;10.006;2024-02-28T12:27:57;40.35;;;12.05;;
66429;SDS011;53242;51.694;10.006;2024-02-28T12:30:19;43.83;;;14.52;;
66429;SDS011;53242;51.694;10.006;2024-02-28T12:32:42;47.60;;;14.25;;
66429;SDS011;53242;51.694;10.006;2024-02-28T12:35:05;37.22;;;12.30;;
66429;SDS011;53242;51.694;10.006;2024-02-28T12:37:29;35.80;;;9.98;;
66429;SDS011;53242;51.694;10.006;2024-02-28T12:39:51;36.08;;;10.18;;
66429;SDS011;53242;51.694;10.006;2024-02-28T12:42:14;37.08;;;11.57;;
66429;SDS011;53242;51.694;10.006;2024-02-28T12:44:36;33.97;;;10.65;;
66429;SDS011;53242;51.694;10.006;2024-02-28T12:47:00;32.75;;;9.65;;
66429;SDS011;53242;51.694;10.006;2024-02-28T12:49:22;38.35;;;12.52;;
66429;SDS011;53242;51.694;10.006;2024-02-28T12:51:45;37.15;;;11.13;;
66429;SDS011;53242;51.694;10.006;2024-02-28T12:54:08;50.90;;;15.07;;
66429;SDS011;53242;51.694;10.006;2024-02-28T12:56:31;41.30;;;12.93;;
66429;SDS011;53242;51.694;10.006;2024-02-28T12:58:53;39.42;;;12.05;;
66429;SDS011;53242;51.694;10.006;2024-02-28T13:01:15;39.40;;;12.32;;
66429;SDS011;53242;51.694;10.006;2024-02-28T13:03:38;42.15;;;14.15;;
66429;SDS011;53242;51.694;10.006;2024-02-28T13:06:00;40.83;;;12.75;;
66429;SDS011;53242;51.694;10.006;2024-02-28T13:08:23;37.67;;;12.50;;
66429;SDS011;53242;51.694;10.006;2024-02-28T13:10:45;43.70;;;14.00;;
66429;SDS011;53242;51.694;10.006;2024-02-28T13:13:07;35.53;;;11.38;;
66429;SDS011;53242;51.694;10.006;2024-02-28T13:15:30;33.05;;;9.32;;
66429;SDS011;53242;51.694;10.006;2024-02-28T13:17:52;36.95;;;11.80;;
66429;SDS011;53242;51.694;10.006;2024-02-28T13:20:15;31.83;;;10.40;;
66429;SDS011;53242;51.694;10.006;2024-02-28T13:22:38;38.97;;;12.13;;
66429;SDS011;53242;51.694;10.006;2024-02-28T13:25:00;36.83;;;11.05;;
66429;SDS011;53242;51.694;10.006;2024-02-28T13:27:23;38.53;;;11.88;;
66429;SDS011;53242;51.694;10.006;2024-02-28T13:29:45;44.70;;;12.82;;
66429;SDS011;53242;51.694;10.006;2024-02-28T13:32:07;36.70;;;11.02;;
66429;SDS011;53242;51.694;10.006;2024-02-28T13:34:30;38.03;;;11.80;;
66429;SDS011;53242;51.694;10.006;2024-02-28T13:36:52;37.13;;;12.00;;
66429;SDS011;53242;51.694;10.006;2024-02-28T13:39:15;39.00;;;12.02;;
66429;SDS011;53242;51.694;10.006;2024-02-28T13:41:39;41.50;;;11.88;;
66429;SDS011;53242;51.694;10.006;2024-02-28T13:44:02;40.00;;;12.18;;
66429;SDS011;53242;51.694;10.006;2024-02-28T13:46:25;40.30;;;13.20;;